createdAt,value
2022-09-07T00:00:51.621Z,2.20
2022-09-07T00:03:39.174Z,3.80
2022-09-07T00:06:18.202Z,2.70
2022-09-07T00:14:07.859Z,2.30
2022-09-07T00:17:36.305Z,2.60
2022-09-07T00:24:04.150Z,2.50
2022-09-07T00:26:37.016Z,2.50
2022-09-07T00:29:16.035Z,2.70
2022-09-07T00:31:50.250Z,2.70
2022-09-07T00:34:29.039Z,3.00
2022-09-07T00:41:41.136Z,2.90
2022-09-07T00:49:24.514Z,2.30
2022-09-07T00:56:10.932Z,2.40
2022-09-07T01:37:41.700Z,2.30
2022-09-07T01:49:29.498Z,3.00
2022-09-07T02:05:24.552Z,3.30
2022-09-07T02:27:42.579Z,3.40
2022-09-07T02:30:21.497Z,4.00
2022-09-07T02:37:46.370Z,3.40
2022-09-07T02:42:08.315Z,3.00
2022-09-07T02:58:14.704Z,4.10
2022-09-07T03:19:54.379Z,3.30
2022-09-07T03:31:35.675Z,3.90
2022-09-07T03:34:08.307Z,4.10
2022-09-07T03:36:47.169Z,4.90
2022-09-07T03:39:22.738Z,5.50
2022-09-07T03:42:54.383Z,4.60
2022-09-07T03:55:40.247Z,4.60
2022-09-07T03:58:19.166Z,3.90
2022-09-07T04:00:52.915Z,4.60
2022-09-07T04:12:11.861Z,4.00
2022-09-07T04:15:06.816Z,4.40
2022-09-07T04:18:30.361Z,4.40
2022-09-07T04:21:52.333Z,4.30
2022-09-07T04:29:31.788Z,4.60
2022-09-07T04:32:04.732Z,4.90
2022-09-07T04:34:43.563Z,5.00
2022-09-07T04:37:17.270Z,5.10
2022-09-07T04:39:56.464Z,5.30
2022-09-07T04:42:28.911Z,4.80
2022-09-07T04:48:48.479Z,5.30
2022-09-07T04:52:11.509Z,5.30
2022-09-07T04:54:52.738Z,5.40
2022-09-07T04:58:14.658Z,5.80
2022-09-07T05:00:54.639Z,6.40
2022-09-07T05:03:30.074Z,6.40
2022-09-07T05:06:51.462Z,6.20
2022-09-07T05:09:24.013Z,6.40
2022-09-07T05:11:56.700Z,8.10
2022-09-07T05:14:35.218Z,6.80
2022-09-07T05:17:07.923Z,8.20
2022-09-07T05:19:47.593Z,8.30
2022-09-07T05:22:19.940Z,7.00
2022-09-07T05:25:00.345Z,5.60
2022-09-07T05:32:03.439Z,10.20
2022-09-07T05:52:10.454Z,5.70
2022-09-07T05:54:42.924Z,5.80
2022-09-07T05:57:22.216Z,5.90
2022-09-07T05:59:54.713Z,6.00
2022-09-07T06:02:39.610Z,6.20
2022-09-07T06:10:50.048Z,5.80
2022-09-07T06:13:22.520Z,6.40
2022-09-07T06:30:57.397Z,5.90
2022-09-07T06:34:19.563Z,6.00
2022-09-07T06:44:58.714Z,6.30
2022-09-07T06:52:24.577Z,6.40
2022-09-07T06:57:35.738Z,10.20
2022-09-07T07:05:22.531Z,25.70
2022-09-07T07:07:56.461Z,8.90
2022-09-07T07:10:29.749Z,9.00
2022-09-07T07:13:02.390Z,6.90
2022-09-07T07:15:34.996Z,6.10
2022-09-07T07:18:20.317Z,6.40
2022-09-07T07:20:55.345Z,5.80
2022-09-07T07:23:27.779Z,7.30
2022-09-07T07:26:04.454Z,6.30
2022-09-07T07:31:29.882Z,5.30
2022-09-07T07:34:03.918Z,5.80
2022-09-07T07:36:36.890Z,6.00
2022-09-07T07:42:03.447Z,5.60
2022-09-07T07:44:38.132Z,6.30
2022-09-07T07:47:11.162Z,5.50
2022-09-07T07:49:43.585Z,6.30
2022-09-07T07:58:40.891Z,5.10
2022-09-07T08:01:15.528Z,5.30
2022-09-07T08:03:49.224Z,5.60
2022-09-07T08:06:23.497Z,5.00
2022-09-07T08:08:55.891Z,5.00
2022-09-07T08:11:30.440Z,4.90
2022-09-07T08:14:06.004Z,5.30
2022-09-07T08:16:38.391Z,4.80
2022-09-07T08:19:10.628Z,5.50
2022-09-07T08:21:42.767Z,5.20
2022-09-07T08:24:16.139Z,5.00
2022-09-07T08:26:49.297Z,5.00
2022-09-07T08:29:21.694Z,4.70
2022-09-07T08:31:54.541Z,4.10
2022-09-07T08:34:26.879Z,3.80
2022-09-07T08:36:59.392Z,3.70
2022-09-07T08:39:33.391Z,3.70
2022-09-07T08:42:43.873Z,3.80
2022-09-07T08:45:21.416Z,4.20
2022-09-07T08:47:54.852Z,3.30
2022-09-07T08:50:33.883Z,3.70
2022-09-07T08:53:13.545Z,3.30
2022-09-07T08:55:51.996Z,3.00
2022-09-07T08:58:48.303Z,3.40
2022-09-07T09:01:31.041Z,2.90
2022-09-07T09:04:22.382Z,3.00
2022-09-07T09:07:11.753Z,2.70
2022-09-07T09:10:12.918Z,3.20
2022-09-07T09:12:57.079Z,4.10
2022-09-07T09:15:51.787Z,3.70
2022-09-07T09:18:35.606Z,3.90
2022-09-07T09:21:14.186Z,4.70
2022-09-07T09:27:37.320Z,3.20
2022-09-07T09:30:16.161Z,3.10
2022-09-07T09:32:50.537Z,3.70
2022-09-07T09:35:34.488Z,3.50
2022-09-07T09:38:31.909Z,3.20
2022-09-07T09:41:08.115Z,3.50
2022-09-07T09:43:48.852Z,3.30
2022-09-07T09:46:25.930Z,3.30
2022-09-07T09:49:01.038Z,3.50
2022-09-07T09:54:43.051Z,4.20
2022-09-07T10:01:23.121Z,4.30
2022-09-07T10:03:59.130Z,4.20
2022-09-07T10:06:33.650Z,3.90
2022-09-07T10:09:05.931Z,4.30
2022-09-07T10:14:46.083Z,4.40
2022-09-07T10:17:26.541Z,4.30
2022-09-07T10:23:02.934Z,3.90
2022-09-07T10:25:59.494Z,3.80
2022-09-07T10:31:32.132Z,3.60
2022-09-07T10:34:27.043Z,3.60
2022-09-07T10:37:05.472Z,12.90
2022-09-07T10:39:42.075Z,4.20
2022-09-07T10:42:27.655Z,4.80
2022-09-07T10:45:14.693Z,4.20
2022-09-07T10:47:57.545Z,4.10
2022-09-07T10:50:33.958Z,4.80
2022-09-07T10:53:42.478Z,4.90
2022-09-07T10:56:20.927Z,4.10
2022-09-07T10:59:07.807Z,4.70
2022-09-07T11:01:58.539Z,4.50
2022-09-07T11:04:46.902Z,4.40
2022-09-07T11:07:37.122Z,4.00
2022-09-07T11:10:22.116Z,6.30
2022-09-07T11:12:57.467Z,4.20
2022-09-07T11:15:32.714Z,4.20
2022-09-07T11:18:15.226Z,4.10
2022-09-07T11:20:54.984Z,4.00
2022-09-07T11:23:31.232Z,4.50
2022-09-07T11:26:12.613Z,5.50
2022-09-07T11:29:29.123Z,4.50
2022-09-07T11:31:47.395Z,3.80
2022-09-07T11:34:25.683Z,4.10
2022-09-07T11:37:04.525Z,5.60
2022-09-07T11:44:40.262Z,4.70
2022-09-07T11:51:56.015Z,4.20
2022-09-07T11:59:39.332Z,4.10
2022-09-07T12:12:51.053Z,4.60
2022-09-07T12:16:20.627Z,4.50
2022-09-07T12:24:09.462Z,5.10
2022-09-07T13:17:57.427Z,5.10
2022-09-07T13:20:40.748Z,4.50
2022-09-07T13:30:05.130Z,4.50
2022-09-07T13:37:06.226Z,3.80
2022-09-07T13:53:09.822Z,4.20
2022-09-07T13:55:58.254Z,4.10
2022-09-07T14:07:16.111Z,4.60
2022-09-07T14:14:34.619Z,4.20
2022-09-07T14:27:37.313Z,4.80
2022-09-07T14:42:32.139Z,10.40
2022-09-07T14:45:45.648Z,5.10
2022-09-07T14:57:33.650Z,4.40
2022-09-07T15:05:32.472Z,5.00
2022-09-07T15:20:45.677Z,5.90
2022-09-07T15:24:19.054Z,4.90
2022-09-07T15:27:08.252Z,5.10
2022-09-07T15:30:41.642Z,5.30
2022-09-07T15:33:14.043Z,5.20
2022-09-07T15:35:54.216Z,5.10
2022-09-07T15:45:14.426Z,9.30
2022-09-07T15:47:53.391Z,6.10
2022-09-07T15:50:25.967Z,13.40
2022-09-07T15:53:00.829Z,11.90
2022-09-07T15:55:33.746Z,10.00
2022-09-07T15:58:11.813Z,7.40
2022-09-07T16:00:44.481Z,7.40
2022-09-07T16:03:18.142Z,6.10
2022-09-07T16:05:53.179Z,6.90
2022-09-07T16:08:25.782Z,5.30
2022-09-07T16:11:05.488Z,5.70
2022-09-07T16:13:39.211Z,5.50
2022-09-07T16:16:15.657Z,5.70
2022-09-07T16:18:48.837Z,5.40
2022-09-07T16:21:26.256Z,5.50
2022-09-07T16:23:59.197Z,5.10
2022-09-07T16:26:31.305Z,5.90
2022-09-07T16:29:04.296Z,5.30
2022-09-07T16:31:37.087Z,5.30
2022-09-07T16:34:10.054Z,4.90
2022-09-07T16:36:42.420Z,5.10
2022-09-07T16:39:14.787Z,5.50
2022-09-07T16:41:46.918Z,5.30
2022-09-07T16:44:19.428Z,5.50
2022-09-07T16:46:54.290Z,5.30
2022-09-07T16:49:28.815Z,5.80
2022-09-07T16:52:01.261Z,6.00
2022-09-07T16:54:33.439Z,5.80
2022-09-07T16:57:05.856Z,5.60
2022-09-07T16:59:37.943Z,5.80
2022-09-07T17:02:18.494Z,5.60
2022-09-07T17:04:51.904Z,6.00
2022-09-07T17:07:24.029Z,5.70
2022-09-07T17:09:56.718Z,6.20
2022-09-07T17:12:29.053Z,5.70
2022-09-07T17:15:01.121Z,5.70
2022-09-07T17:17:33.650Z,5.80
2022-09-07T17:20:06.692Z,5.40
2022-09-07T17:22:39.188Z,6.00
2022-09-07T17:25:14.095Z,5.10
2022-09-07T17:27:46.729Z,5.10
2022-09-07T17:30:20.814Z,5.50
2022-09-07T17:32:53.415Z,5.60
2022-09-07T17:35:26.215Z,5.80
2022-09-07T17:38:00.885Z,5.70
2022-09-07T17:40:34.717Z,6.10
2022-09-07T17:46:05.518Z,6.90
2022-09-07T17:48:41.862Z,6.10
2022-09-07T17:51:17.123Z,5.70
2022-09-07T17:53:50.038Z,6.70
2022-09-07T17:56:22.751Z,6.50
2022-09-07T18:00:10.685Z,6.20
2022-09-07T18:01:49.593Z,7.00
2022-09-07T18:04:24.748Z,7.20
2022-09-07T18:06:57.568Z,7.70
2022-09-07T18:09:32.533Z,8.20
2022-09-07T18:12:05.848Z,8.50
2022-09-07T18:14:38.247Z,7.20
2022-09-07T18:17:11.451Z,8.10
2022-09-07T18:19:46.981Z,8.40
2022-09-07T18:22:19.350Z,9.10
2022-09-07T18:24:52.288Z,7.70
2022-09-07T18:27:25.600Z,7.60
2022-09-07T18:29:58.935Z,8.50
2022-09-07T18:32:31.799Z,7.30
2022-09-07T18:35:04.217Z,7.30
2022-09-07T18:37:36.397Z,7.40
2022-09-07T18:40:11.106Z,7.80
2022-09-07T18:42:43.326Z,8.00
2022-09-07T18:45:31.732Z,9.10
2022-09-07T18:48:05.723Z,8.70
2022-09-07T18:50:37.955Z,8.80
2022-09-07T18:53:16.863Z,8.10
2022-09-07T18:55:50.857Z,8.20
2022-09-07T18:58:24.332Z,9.40
2022-09-07T19:01:04.169Z,10.20
2022-09-07T19:03:37.274Z,10.50
2022-09-07T19:06:13.307Z,10.40
2022-09-07T19:08:46.716Z,10.20
2022-09-07T19:11:20.445Z,10.70
2022-09-07T19:14:00.378Z,9.50
2022-09-07T19:16:33.237Z,9.10
2022-09-07T19:19:08.797Z,10.30
2022-09-07T19:21:42.711Z,9.20
2022-09-07T19:24:17.108Z,10.20
2022-09-07T19:26:50.982Z,10.70
2022-09-07T19:29:23.722Z,10.90
2022-09-07T19:32:07.954Z,10.40
2022-09-07T19:34:43.533Z,11.20
2022-09-07T19:37:16.857Z,10.20
2022-09-07T19:39:49.656Z,10.80
2022-09-07T19:42:22.004Z,11.70
2022-09-07T19:44:54.656Z,11.30
2022-09-07T19:47:27.290Z,11.20
2022-09-07T19:50:01.587Z,10.40
2022-09-07T19:52:35.549Z,11.50
2022-09-07T19:55:09.769Z,11.80
2022-09-07T19:57:43.064Z,11.20
2022-09-07T20:00:16.828Z,12.00
2022-09-07T20:02:51.125Z,12.20
2022-09-07T20:05:24.115Z,12.00
2022-09-07T20:07:56.327Z,11.40
2022-09-07T20:10:28.414Z,11.40
2022-09-07T20:13:00.560Z,12.00
2022-09-07T20:15:33.475Z,11.60
2022-09-07T20:18:06.229Z,11.50
2022-09-07T20:20:38.582Z,11.30
2022-09-07T20:23:12.849Z,11.70
2022-09-07T20:25:45.165Z,11.10
2022-09-07T20:28:17.966Z,11.00
2022-09-07T20:30:50.062Z,11.70
2022-09-07T20:33:23.996Z,10.80
2022-09-07T20:35:56.234Z,11.00
2022-09-07T20:38:28.355Z,12.70
2022-09-07T20:41:02.018Z,12.20
2022-09-07T20:43:34.603Z,13.10
2022-09-07T20:46:09.734Z,11.50
2022-09-07T20:48:42.212Z,13.70
2022-09-07T20:51:20.828Z,13.40
2022-09-07T20:53:53.327Z,14.80
2022-09-07T20:56:31.706Z,16.90
2022-09-07T20:59:05.695Z,20.50
2022-09-07T21:01:37.943Z,21.00
2022-09-07T21:04:10.233Z,19.00
2022-09-07T21:06:42.463Z,18.00
2022-09-07T21:09:14.640Z,16.60
2022-09-07T21:11:49.685Z,15.40
2022-09-07T21:14:23.227Z,14.40
2022-09-07T21:16:55.348Z,12.80
2022-09-07T21:19:27.487Z,11.80
2022-09-07T21:21:59.649Z,12.10
2022-09-07T21:24:32.603Z,11.80
2022-09-07T21:27:04.797Z,11.90
2022-09-07T21:29:36.933Z,11.20
2022-09-07T21:32:09.482Z,10.50
2022-09-07T21:34:41.632Z,11.30
2022-09-07T21:37:13.754Z,10.50
2022-09-07T21:39:46.308Z,10.50
2022-09-07T21:42:18.337Z,11.00
2022-09-07T21:44:50.394Z,10.50
2022-09-07T21:47:22.527Z,11.40
2022-09-07T21:49:54.719Z,11.20
2022-09-07T21:52:26.830Z,12.40
2022-09-07T21:54:58.969Z,12.10
2022-09-07T21:57:31.064Z,10.30
2022-09-07T22:00:03.520Z,10.90
2022-09-07T22:02:40.595Z,10.00
2022-09-07T22:05:13.230Z,10.80
2022-09-07T22:07:45.273Z,9.70
2022-09-07T22:10:20.829Z,10.40
2022-09-07T22:12:52.929Z,9.60
2022-09-07T22:15:25.078Z,10.40
2022-09-07T22:17:57.548Z,9.80
2022-09-07T22:20:29.780Z,10.20
2022-09-07T22:23:01.890Z,11.50
2022-09-07T22:25:34.829Z,11.10
2022-09-07T22:28:08.177Z,10.70
2022-09-07T22:30:40.338Z,11.30
2022-09-07T22:33:12.442Z,11.00
2022-09-07T22:35:45.038Z,11.30
2022-09-07T22:38:17.150Z,9.90
2022-09-07T22:40:49.269Z,10.10
2022-09-07T22:43:23.497Z,9.50
2022-09-07T22:45:55.597Z,8.90
2022-09-07T22:48:28.389Z,8.70
2022-09-07T22:51:01.349Z,9.60
2022-09-07T22:53:35.828Z,8.70
2022-09-07T22:56:12.048Z,8.30
2022-09-07T22:58:48.380Z,8.40
2022-09-07T23:01:21.996Z,8.20
2022-09-07T23:03:55.494Z,8.30
2022-09-07T23:06:29.718Z,7.80
2022-09-07T23:09:05.397Z,7.50
2022-09-07T23:11:38.097Z,7.90
2022-09-07T23:14:14.307Z,7.30
2022-09-07T23:16:49.457Z,7.90
2022-09-07T23:19:22.068Z,8.80
2022-09-07T23:21:55.255Z,8.20
2022-09-07T23:24:27.333Z,7.80
2022-09-07T23:26:59.421Z,8.40
2022-09-07T23:29:31.573Z,8.00
2022-09-07T23:32:03.879Z,7.30
2022-09-07T23:34:39.215Z,7.70
2022-09-07T23:37:11.435Z,7.20
2022-09-07T23:39:44.695Z,7.70
2022-09-07T23:42:16.826Z,7.90
2022-09-07T23:44:50.154Z,7.40
2022-09-07T23:47:22.216Z,8.10
2022-09-07T23:49:54.426Z,7.30
2022-09-07T23:52:26.787Z,7.10
2022-09-07T23:54:58.945Z,7.60
2022-09-07T23:57:31.096Z,7.30
